地図

経路データ

SID SEASON NUMBER BASIN SUBBASIN NAME ISO_TIME NATURE LAT LON WMO_WIND WMO_PRES WMO_AGENCY TRACK_TYPE DIST2LAND LANDFALL IFLAG USA_AGENCY USA_ATCF_ID USA_LAT USA_LON USA_RECORD USA_STATUS USA_WIND USA_PRES USA_SSHS USA_R34_NE USA_R34_SE USA_R34_SW USA_R34_NW USA_R50_NE USA_R50_SE USA_R50_SW USA_R50_NW USA_R64_NE USA_R64_SE USA_R64_SW USA_R64_NW USA_POCI USA_ROCI USA_RMW USA_EYE TOKYO_LAT TOKYO_LON TOKYO_GRADE TOKYO_WIND TOKYO_PRES TOKYO_R50_DIR TOKYO_R50_LONG TOKYO_R50_SHORT TOKYO_R30_DIR TOKYO_R30_LONG TOKYO_R30_SHORT TOKYO_LAND CMA_LAT CMA_LON CMA_CAT CMA_WIND CMA_PRES HKO_LAT HKO_LON HKO_CAT HKO_WIND HKO_PRES NEWDELHI_LAT NEWDELHI_LON NEWDELHI_GRADE NEWDELHI_WIND NEWDELHI_PRES NEWDELHI_CI NEWDELHI_DP NEWDELHI_POCI REUNION_LAT REUNION_LON REUNION_TYPE REUNION_WIND REUNION_PRES REUNION_TNUM REUNION_CI REUNION_RMW REUNION_R34_NE REUNION_R34_SE REUNION_R34_SW REUNION_R34_NW REUNION_R50_NE REUNION_R50_SE REUNION_R50_SW REUNION_R50_NW REUNION_R64_NE REUNION_R64_SE REUNION_R64_SW REUNION_R64_NW BOM_LAT BOM_LON BOM_TYPE BOM_WIND BOM_PRES BOM_TNUM BOM_CI BOM_RMW BOM_R34_NE BOM_R34_SE BOM_R34_SW BOM_R34_NW BOM_R50_NE BOM_R50_SE BOM_R50_SW BOM_R50_NW BOM_R64_NE BOM_R64_SE BOM_R64_SW BOM_R64_NW BOM_ROCI BOM_POCI BOM_EYE BOM_POS_METHOD BOM_PRES_METHOD NADI_LAT NADI_LON NADI_CAT NADI_WIND NADI_PRES WELLINGTON_LAT WELLINGTON_LON WELLINGTON_WIND WELLINGTON_PRES DS824_LAT DS824_LON DS824_STAGE DS824_WIND DS824_PRES TD9636_LAT TD9636_LON TD9636_STAGE TD9636_WIND TD9636_PRES TD9635_LAT TD9635_LON TD9635_WIND TD9635_PRES TD9635_ROCI NEUMANN_LAT NEUMANN_LON NEUMANN_CLASS NEUMANN_WIND NEUMANN_PRES MLC_LAT MLC_LON MLC_CLASS MLC_WIND MLC_PRES USA_GUST BOM_GUST BOM_GUST_PER REUNION_GUST REUNION_GUST_PER USA_SEAHGT USA_SEARAD_NE USA_SEARAD_SE USA_SEARAD_SW USA_SEARAD_NW STORM_SPEED STORM_DIR
1966270N11317 1966 89 NA NA JUDITH 1966-09-27 00:00:00 TS 10.8000 -43.2000 25 hurdat_atl main 1152 1109 O_____________ hurdat_atl AL101966 10.8000 -43.2000 TD 25 -1 13 279
1966270N11317 1966 89 NA NA JUDITH 1966-09-27 03:00:00 TS 10.9003 -43.8499 main 1109 1060 P_____________ AL101966 10.9003 -43.8499 TD 25 -1 13 279
1966270N11317 1966 89 NA NA JUDITH 1966-09-27 06:00:00 TS 11.0000 -44.5000 25 hurdat_atl main 1060 1023 O_____________ hurdat_atl AL101966 11.0000 -44.5000 TD 25 -1 13 279
1966270N11317 1966 89 NA NA JUDITH 1966-09-27 09:00:00 TS 11.0999 -45.1500 main 1016 982 P_____________ AL101966 11.0999 -45.1500 TD 25 -1 13 279
1966270N11317 1966 89 NA NA JUDITH 1966-09-27 12:00:00 TS 11.2000 -45.8000 25 hurdat_atl main 982 952 O_____________ hurdat_atl AL101966 11.2000 -45.8000 TD 25 -1 13 279
1966270N11317 1966 89 NA NA JUDITH 1966-09-27 15:00:00 TS 11.2999 -46.4500 main 945 920 P_____________ AL101966 11.2999 -46.4500 TD 25 -1 13 279
1966270N11317 1966 89 NA NA JUDITH 1966-09-27 18:00:00 TS 11.4000 -47.1000 25 hurdat_atl main 920 888 O_____________ hurdat_atl AL101966 11.4000 -47.1000 TD 25 -1 13 279
1966270N11317 1966 89 NA NA JUDITH 1966-09-27 21:00:00 TS 11.4923 -47.7426 main 888 853 P_____________ AL101966 11.4923 -47.7426 TD 27 -1 13 279
1966270N11317 1966 89 NA NA JUDITH 1966-09-28 00:00:00 TS 11.6000 -48.4000 30 hurdat_atl main 853 823 O_____________ hurdat_atl AL101966 11.6000 -48.4000 TD 30 -1 13 281
1966270N11317 1966 89 NA NA JUDITH 1966-09-28 03:00:00 TS 11.7424 -49.0925 main 823 808 P_____________ AL101966 11.7424 -49.0925 TD 30 -1 14 282
1966270N11317 1966 89 NA NA JUDITH 1966-09-28 06:00:00 TS 11.9000 -49.8000 30 hurdat_atl main 809 792 O_____________ hurdat_atl AL101966 11.9000 -49.8000 TD 30 -1 14 283
1966270N11317 1966 89 NA NA JUDITH 1966-09-28 09:00:00 TS 12.0498 -50.4926 main 792 778 P_____________ AL101966 12.0498 -50.4926 TD 35 0 14 282
1966270N11317 1966 89 NA NA JUDITH 1966-09-28 12:00:00 TS 12.2000 -51.2000 40 hurdat_atl main 778 760 O_____________ hurdat_atl AL101966 12.2000 -51.2000 TS 40 0 15 282
1966270N11317 1966 89 NA NA JUDITH 1966-09-28 15:00:00 TS 12.3499 -51.9426 main 760 754 P_____________ AL101966 12.3499 -51.9426 TS 40 0 15 282
1966270N11317 1966 89 NA NA JUDITH 1966-09-28 18:00:00 TS 12.5000 -52.7000 40 hurdat_atl main 757 752 O_____________ hurdat_atl AL101966 12.5000 -52.7000 TS 40 0 15 282
1966270N11317 1966 89 NA NA JUDITH 1966-09-28 21:00:00 TS 12.6495 -53.4202 main 755 751 P_____________ AL101966 12.6495 -53.4202 TS 40 0 15 282
1966270N11317 1966 89 NA NA JUDITH 1966-09-29 00:00:00 TS 12.8000 -54.2000 40 1013 hurdat_atl main 751 688 O_____________ hurdat_atl AL101966 12.8000 -54.2000 TS 40 1013 0 17 280
1966270N11317 1966 89 NA NA JUDITH 1966-09-29 03:00:00 TS 12.9500 -55.1201 main 688 607 P_____________ AL101966 12.9500 -55.1201 TS 40 0 19 279
1966270N11317 1966 89 NA NA JUDITH 1966-09-29 06:00:00 TS 13.1000 -56.1000 40 hurdat_atl main 597 517 O_____________ hurdat_atl AL101966 13.1000 -56.1000 TS 40 0 19 279
1966270N11317 1966 89 NA NA JUDITH 1966-09-29 09:00:00 TS 13.2573 -57.0650 main 514 452 P_____________ AL101966 13.2573 -57.0650 TS 42 0 19 279
1966270N11317 1966 89 NA NA JUDITH 1966-09-29 12:00:00 TS 13.4000 -58.0000 45 hurdat_atl main 444 394 O_____________ hurdat_atl AL101966 13.4000 -58.0000 TS 45 0 18 278
1966270N11317 1966 89 NA NA JUDITH 1966-09-29 15:00:00 TS 13.5072 -58.8801 main 387 354 P_____________ AL101966 13.5072 -58.8801 TS 45 0 17 277
1966270N11317 1966 89 NA CS JUDITH 1966-09-29 18:00:00 TS 13.6000 -59.7000 45 1007 hurdat_atl main 354 342 O_____________ hurdat_atl AL101966 13.6000 -59.7000 TS 45 1007 0 16 278
1966270N11317 1966 89 NA CS JUDITH 1966-09-29 21:00:00 TS 13.7148 -60.4874 main 340 337 P_____________ AL101966 13.7148 -60.4874 TS 37 0 15 278
1966270N11317 1966 89 NA CS JUDITH 1966-09-30 00:00:00 TS 13.8000 -61.2000 30 hurdat_atl main 347 347 O_____________ hurdat_atl AL101966 13.8000 -61.2000 TD 30 -1 13 274
1966270N11317 1966 89 NA CS JUDITH 1966-09-30 03:00:00 TS 13.8148 -61.8376 main 347 347 P_____________ AL101966 13.8148 -61.8376 TD 30 -1 12 270
1966270N11317 1966 89 NA CS JUDITH 1966-09-30 06:00:00 TS 13.8000 -62.4000 30 hurdat_atl main 347 347 O_____________ hurdat_atl AL101966 13.8000 -62.4000 TD 30 -1 10 269
1966270N11317 1966 89 NA CS JUDITH 1966-09-30 09:00:00 TS 13.7952 -62.9124 main 347 347 P_____________ AL101966 13.7952 -62.9124 TD 30 -1 10 270
1966270N11317 1966 89 NA CS JUDITH 1966-09-30 12:00:00 TS 13.8000 -63.4000 30 hurdat_atl main 348 O_____________ hurdat_atl AL101966 13.8000 -63.4000 TD 30 -1 9 271

IBTrACS Databaseについて

本データベースは、米国NOAAが公開する1842年以降の世界の熱帯低気圧のベストトラックデータアーカイブInternational Best Track Archive for Climate Stewardship (IBTrACS)を、ウェブで閲覧しやすい形式に変換したものです。

最終更新日:2021-11-26